Time;durP1;ratioP1;P1;durP2;ratioP2;P2;SDS_P1;SDS_P2;PMS_P1;PMS_P2;Temp;Humidity;BMP_temperature;BMP_pressure;BME280_temperature;BME280_humidity;BME280_pressure;Samples;Min_cycle;Max_cycle;Signal;HPM_P1;HPM_P2
2023/07/05 00:00:58;;;;;;;13.27;4.40;;;14.70;99.90;;;;;;4990144;28;20498;-77
2023/07/05 00:03:45;;;;;;;10.60;3.75;;;14.70;99.90;;;;;;4990234;28;20054;-77
2023/07/05 00:06:31;;;;;;;12.75;4.45;;;14.60;99.90;;;;;;4991030;28;20527;-76
2023/07/05 00:09:17;;;;;;;14.30;3.30;;;14.50;99.90;;;;;;4989113;28;20055;-78
2023/07/05 00:12:03;;;;;;;8.60;3.30;;;14.60;99.90;;;;;;4990093;28;20054;-76
2023/07/05 00:14:50;;;;;;;12.50;3.60;;;14.50;99.90;;;;;;4990965;28;20097;-79
2023/07/05 00:17:36;;;;;;;8.32;3.58;;;14.50;99.90;;;;;;4988585;28;20503;-78
2023/07/05 00:20:23;;;;;;;9.88;4.20;;;14.40;99.90;;;;;;4990442;28;20049;-76
2023/07/05 00:23:09;;;;;;;10.23;3.88;;;14.40;99.90;;;;;;4990422;28;20077;-76
2023/07/05 00:25:55;;;;;;;10.68;3.38;;;14.30;99.90;;;;;;4990202;28;20050;-77
2023/07/05 00:28:42;;;;;;;13.02;4.15;;;14.30;99.90;;;;;;4990116;28;20042;-80
2023/07/05 00:31:28;;;;;;;12.35;4.70;;;14.30;99.90;;;;;;4989808;28;20073;-80
2023/07/05 00:34:14;;;;;;;10.65;4.00;;;14.20;99.90;;;;;;4975245;28;20562;-77
2023/07/05 00:37:00;;;;;;;12.27;4.50;;;14.30;99.90;;;;;;4989465;28;20422;-78
2023/07/05 00:39:46;;;;;;;13.18;5.38;;;14.20;99.90;;;;;;4990287;28;20137;-76
2023/07/05 00:42:33;;;;;;;8.63;4.55;;;14.20;99.90;;;;;;4989361;28;20514;-78
2023/07/05 00:45:19;;;;;;;11.40;5.05;;;14.20;99.90;;;;;;4990041;28;20046;-77
2023/07/05 00:48:05;;;;;;;11.13;5.03;;;14.20;99.90;;;;;;4988558;28;20057;-77
2023/07/05 00:50:56;;;;;;;11.15;4.97;;;14.20;99.90;;;;;;4989965;28;20050;-77
2023/07/05 00:53:42;;;;;;;12.65;5.43;;;14.20;99.90;;;;;;4988370;28;20146;-77
2023/07/05 00:56:37;;;;;;;15.32;5.90;;;14.20;99.90;;;;;;4987632;28;20120;-79
2023/07/05 00:59:28;;;;;;;12.63;5.05;;;14.20;99.90;;;;;;4989836;28;20053;-77
2023/07/05 01:02:15;;;;;;;15.57;6.35;;;14.20;99.90;;;;;;4989505;28;20050;-79
2023/07/05 01:05:01;;;;;;;11.00;6.15;;;14.20;99.90;;;;;;4990080;28;20129;-77
2023/07/05 01:07:47;;;;;;;14.10;5.80;;;14.20;99.90;;;;;;4990157;28;20160;-77
2023/07/05 01:10:34;;;;;;;11.52;6.15;;;14.20;99.90;;;;;;4988676;28;20499;-77
2023/07/05 01:13:29;;;;;;;13.98;6.10;;;14.20;99.90;;;;;;4988256;28;20058;-78
2023/07/05 01:16:31;;;;;;;17.17;6.15;;;14.30;99.90;;;;;;4989961;28;20866;-77
2023/07/05 01:19:46;;;;;;;15.57;6.20;;;14.30;99.90;;;;;;4988021;28;20046;-77
2023/07/05 01:23:16;;;;;;;14.02;6.05;;;14.30;99.90;;;;;;4988895;28;20133;-77
2023/07/05 01:26:21;;;;;;;10.82;5.55;;;14.30;99.90;;;;;;4985079;28;20050;-77
2023/07/05 01:29:07;;;;;;;16.00;6.18;;;14.30;99.90;;;;;;4989355;28;20093;-77
2023/07/05 01:32:08;;;;;;;17.45;5.55;;;14.30;99.90;;;;;;4989417;28;20129;-77
2023/07/05 01:35:10;;;;;;;13.98;5.95;;;14.30;99.90;;;;;;4989051;28;20503;-77
2023/07/05 01:37:56;;;;;;;12.27;5.40;;;14.40;99.90;;;;;;4989384;28;20129;-77
2023/07/05 01:40:45;;;;;;;11.88;5.53;;;14.40;99.90;;;;;;4989508;28;20057;-78
2023/07/05 01:43:34;;;;;;;12.30;5.63;;;14.40;99.90;;;;;;4988907;28;20090;-76
2023/07/05 01:46:23;;;;;;;17.08;6.50;;;14.40;99.90;;;;;;4989518;28;20046;-76
2023/07/05 01:49:48;;;;;;;20.13;6.20;;;14.40;99.90;;;;;;4990797;28;20525;-75
2023/07/05 01:52:55;;;;;;;21.63;7.63;;;14.40;99.90;;;;;;4992364;28;20053;-76
2023/07/05 01:55:53;;;;;;;17.98;7.50;;;14.40;99.90;;;;;;4992056;28;20133;-77
2023/07/05 01:58:45;;;;;;;16.48;6.40;;;14.50;99.90;;;;;;4993025;28;20057;-77
2023/07/05 02:01:34;;;;;;;17.50;6.22;;;14.50;99.90;;;;;;4992134;28;20042;-77
2023/07/05 02:04:22;;;;;;;19.17;7.85;;;14.40;99.90;;;;;;4992913;28;20162;-76
2023/07/05 02:07:10;;;;;;;14.13;7.72;;;14.40;99.90;;;;;;4991592;28;20403;-76
2023/07/05 02:09:56;;;;;;;15.23;6.88;;;14.40;99.90;;;;;;4991401;28;20054;-77
2023/07/05 02:12:43;;;;;;;17.08;6.97;;;14.40;99.90;;;;;;4992867;28;20042;-75
2023/07/05 02:15:30;;;;;;;13.05;7.75;;;14.40;99.90;;;;;;4990987;28;20466;-75
2023/07/05 02:18:17;;;;;;;18.50;7.47;;;14.40;99.90;;;;;;4991167;28;20046;-77
2023/07/05 02:21:09;;;;;;;18.50;7.57;;;14.40;99.90;;;;;;4991066;28;20167;-76
2023/07/05 02:23:55;;;;;;;24.45;7.40;;;14.30;99.90;;;;;;4992280;28;20050;-75
2023/07/05 02:26:41;;;;;;;18.83;8.85;;;14.30;99.90;;;;;;4991734;28;20046;-76
2023/07/05 02:29:30;;;;;;;20.77;7.43;;;14.30;99.90;;;;;;4992478;28;20130;-75
2023/07/05 02:32:16;;;;;;;17.88;7.95;;;14.20;99.90;;;;;;4992362;28;20105;-78
2023/07/05 02:35:02;;;;;;;15.90;8.02;;;14.20;99.90;;;;;;4992051;28;20050;-78
2023/07/05 02:37:49;;;;;;;15.60;8.00;;;14.20;99.90;;;;;;4991566;28;20046;-76
2023/07/05 02:40:35;;;;;;;16.15;7.00;;;14.20;99.90;;;;;;4992441;28;20419;-78
2023/07/05 02:43:22;;;;;;;21.02;8.52;;;14.20;99.90;;;;;;4991597;28;20105;-78
2023/07/05 02:46:08;;;;;;;15.38;8.25;;;14.20;99.90;;;;;;4991435;28;20056;-76
2023/07/05 02:48:56;;;;;;;18.30;7.65;;;14.10;99.90;;;;;;4991968;28;20057;-75
2023/07/05 02:51:43;;;;;;;14.07;8.55;;;14.10;99.90;;;;;;4991805;28;20052;-76
2023/07/05 02:54:30;;;;;;;15.63;8.05;;;14.20;99.90;;;;;;4991832;28;20042;-76
2023/07/05 02:57:16;;;;;;;18.95;8.95;;;14.20;99.90;;;;;;4992618;28;20077;-76
2023/07/05 03:00:06;;;;;;;18.83;9.20;;;14.20;99.90;;;;;;4991190;28;20101;-76
2023/07/05 03:02:52;;;;;;;19.65;9.25;;;14.20;99.90;;;;;;4990481;28;20060;-74
2023/07/05 03:05:38;;;;;;;18.70;9.60;;;14.20;99.90;;;;;;4991660;28;20499;-76
2023/07/05 03:08:25;;;;;;;16.63;8.98;;;14.20;99.90;;;;;;4991107;28;20050;-77
2023/07/05 03:11:11;;;;;;;16.20;8.88;;;14.20;99.90;;;;;;4990015;28;20054;-77
2023/07/05 03:13:58;;;;;;;20.48;8.80;;;14.20;99.90;;;;;;4991402;28;20042;-76
2023/07/05 03:16:44;;;;;;;21.58;9.68;;;14.20;99.90;;;;;;4991794;28;20455;-76
2023/07/05 03:19:30;;;;;;;27.10;10.77;;;14.20;99.90;;;;;;4976836;28;20097;-75
2023/07/05 03:22:16;;;;;;;20.17;11.07;;;14.20;99.90;;;;;;4991157;28;20093;-77
2023/07/05 03:25:02;;;;;;;15.15;9.73;;;14.20;99.90;;;;;;4991712;28;20081;-76
2023/07/05 03:27:48;;;;;;;24.77;10.95;;;14.20;99.90;;;;;;4991165;28;20080;-76
2023/07/05 03:30:35;;;;;;;22.75;12.30;;;14.20;99.90;;;;;;4991545;28;20124;-74
2023/07/05 03:33:21;;;;;;;24.08;11.85;;;14.20;99.90;;;;;;4991118;28;20121;-75
2023/07/05 03:36:18;;;;;;;23.25;11.90;;;14.20;99.90;;;;;;4990090;28;20058;-75
2023/07/05 03:39:04;;;;;;;19.95;11.27;;;14.20;99.90;;;;;;4991760;28;20073;-76
2023/07/05 03:41:50;;;;;;;19.58;12.18;;;14.20;99.90;;;;;;4991252;28;20491;-75
2023/07/05 03:44:36;;;;;;;28.15;12.77;;;14.20;99.90;;;;;;4988209;28;20642;-76
2023/07/05 03:47:22;;;;;;;20.83;13.85;;;14.20;99.90;;;;;;4989333;28;20557;-75
2023/07/05 03:50:09;;;;;;;22.23;12.68;;;14.20;99.90;;;;;;4976648;28;20046;-76
2023/07/05 03:52:55;;;;;;;27.50;13.57;;;14.10;99.90;;;;;;4991640;28;20073;-75
2023/07/05 03:55:41;;;;;;;22.67;12.30;;;14.20;99.90;;;;;;4991172;28;20483;-75
2023/07/05 03:58:28;;;;;;;26.85;14.07;;;14.20;99.90;;;;;;4991303;28;20046;-76
2023/07/05 04:01:19;;;;;;;27.92;12.95;;;14.20;99.90;;;;;;4990895;28;20050;-76
2023/07/05 04:04:05;;;;;;;25.95;12.93;;;14.20;99.90;;;;;;4991058;28;20476;-75
2023/07/05 04:06:51;;;;;;;24.38;12.60;;;14.20;99.90;;;;;;4991501;28;20042;-75
2023/07/05 04:09:38;;;;;;;27.17;13.63;;;14.20;99.90;;;;;;4991330;28;20055;-75
2023/07/05 04:12:24;;;;;;;26.23;13.18;;;14.20;99.90;;;;;;4990016;28;20057;-76
2023/07/05 04:15:10;;;;;;;21.75;12.45;;;14.20;99.90;;;;;;4991328;28;20050;-75
2023/07/05 04:17:56;;;;;;;22.83;13.20;;;14.30;99.90;;;;;;4991252;28;20046;-75
2023/07/05 04:20:42;;;;;;;24.90;12.43;;;14.30;99.90;;;;;;4989624;28;20054;-77
2023/07/05 04:23:28;;;;;;;21.73;13.20;;;14.30;99.90;;;;;;4991037;28;20046;-76
2023/07/05 04:26:19;;;;;;;19.27;11.65;;;14.40;99.90;;;;;;4990320;28;20054;-76
2023/07/05 04:29:05;;;;;;;17.70;11.85;;;14.40;99.90;;;;;;4990647;28;20591;-76
2023/07/05 04:31:51;;;;;;;16.63;11.15;;;14.40;99.90;;;;;;4989471;28;20100;-76
2023/07/05 04:34:40;;;;;;;20.98;12.70;;;14.50;99.90;;;;;;4989742;28;20096;-75
2023/07/05 04:37:26;;;;;;;19.65;11.88;;;14.60;99.90;;;;;;4989385;28;20530;-75
2023/07/05 04:40:15;;;;;;;17.98;11.30;;;14.60;99.90;;;;;;4990393;28;20062;-76
2023/07/05 04:43:01;;;;;;;19.55;11.40;;;14.70;99.90;;;;;;4975302;28;20068;-75
2023/07/05 04:45:55;;;;;;;19.48;11.43;;;14.70;99.90;;;;;;4990024;28;20054;-77
2023/07/05 04:48:41;;;;;;;22.08;12.35;;;14.80;99.90;;;;;;4988614;28;20054;-75
2023/07/05 04:51:27;;;;;;;19.13;11.20;;;14.80;99.90;;;;;;4990519;28;20042;-75
2023/07/05 04:54:14;;;;;;;16.73;10.82;;;14.80;99.90;;;;;;4975203;28;20090;-76
2023/07/05 04:57:01;;;;;;;16.15;9.75;;;14.80;99.90;;;;;;4989742;28;20141;-75
2023/07/05 04:59:51;;;;;;;15.63;8.98;;;14.90;99.90;;;;;;4974949;28;20076;-75
2023/07/05 05:02:38;;;;;;;16.33;9.68;;;14.90;99.90;;;;;;4974861;28;20059;-75
2023/07/05 05:09:06;;;;;;;15.48;8.80;;;14.90;99.90;;;;;;4990628;28;20049;-76
2023/07/05 05:11:53;;;;;;;12.35;7.50;;;15.00;99.90;;;;;;4989409;28;20050;-76
2023/07/05 05:14:39;;;;;;;11.82;5.95;;;15.00;99.90;;;;;;4989208;28;20109;-76
2023/07/05 05:17:26;;;;;;;13.43;5.65;;;14.90;99.90;;;;;;4989758;28;20057;-77
2023/07/05 05:20:13;;;;;;;9.10;4.53;;;15.00;99.90;;;;;;4989739;28;20138;-77
2023/07/05 05:22:59;;;;;;;11.18;4.03;;;14.90;99.90;;;;;;4988310;28;20050;-76
2023/07/05 05:25:46;;;;;;;9.05;4.07;;;14.90;99.90;;;;;;4993660;28;20053;-76
2023/07/05 05:28:32;;;;;;;8.05;3.35;;;14.90;99.90;;;;;;4993069;28;20137;-77
2023/07/05 05:31:19;;;;;;;8.43;4.00;;;14.80;99.90;;;;;;4991734;28;20062;-76
2023/07/05 05:34:06;;;;;;;9.52;3.53;;;14.80;99.90;;;;;;4991367;28;20073;-77
2023/07/05 05:36:52;;;;;;;10.88;4.05;;;14.80;99.90;;;;;;4992610;28;20057;-77
2023/07/05 05:39:39;;;;;;;10.30;4.63;;;14.90;99.90;;;;;;4991832;28;20046;-78
2023/07/05 05:42:25;;;;;;;9.38;3.88;;;14.90;99.90;;;;;;4991410;28;20078;-76
2023/07/05 05:45:11;;;;;;;8.07;4.13;;;15.00;99.90;;;;;;4992466;28;20046;-77
2023/07/05 05:47:58;;;;;;;9.45;3.20;;;15.00;99.90;;;;;;4992429;28;20050;-77
2023/07/05 05:50:50;;;;;;;10.57;4.25;;;15.10;99.90;;;;;;4991628;28;20109;-76
2023/07/05 05:53:39;;;;;;;8.90;3.53;;;15.10;99.90;;;;;;4992698;28;20133;-79
2023/07/05 05:56:25;;;;;;;8.43;3.42;;;15.10;99.90;;;;;;4993158;28;20097;-77
2023/07/05 05:59:11;;;;;;;9.93;4.47;;;15.20;99.90;;;;;;4993274;28;20053;-79
2023/07/05 06:01:58;;;;;;;7.70;3.88;;;15.10;99.90;;;;;;4991627;28;20157;-78
2023/07/05 06:04:44;;;;;;;8.55;4.40;;;15.10;99.90;;;;;;4992093;28;20050;-77
2023/07/05 06:07:31;;;;;;;9.55;4.75;;;15.10;99.90;;;;;;4977007;28;20061;-77
2023/07/05 06:10:17;;;;;;;8.77;4.75;;;15.20;99.90;;;;;;4992543;28;20078;-77
2023/07/05 06:13:03;;;;;;;11.68;5.03;;;15.20;99.90;;;;;;4992796;28;20157;-77
2023/07/05 06:15:56;;;;;;;8.13;4.30;;;15.30;99.90;;;;;;4992348;28;20050;-77
2023/07/05 06:18:43;;;;;;;8.85;4.20;;;15.30;99.90;;;;;;4993466;28;20141;-77
2023/07/05 06:21:29;;;;;;;10.60;4.45;;;15.20;99.90;;;;;;4992874;28;20046;-78
2023/07/05 06:24:15;;;;;;;9.73;4.55;;;15.20;99.90;;;;;;4991841;28;20094;-78
2023/07/05 06:27:02;;;;;;;7.75;3.83;;;15.30;99.90;;;;;;4992288;28;20079;-77
2023/07/05 06:29:48;;;;;;;10.85;4.70;;;15.50;99.90;;;;;;4990373;28;20051;-78
2023/07/05 06:32:35;;;;;;;8.45;3.92;;;15.50;99.90;;;;;;4992989;28;20050;-79
2023/07/05 06:35:21;;;;;;;9.85;4.07;;;15.40;99.90;;;;;;4991025;28;20056;-77
2023/07/05 06:38:08;;;;;;;6.53;3.88;;;15.50;99.90;;;;;;4990775;28;20060;-78
2023/07/05 06:40:54;;;;;;;10.20;4.30;;;15.50;99.90;;;;;;4977222;28;20138;-77
2023/07/05 06:43:40;;;;;;;7.28;3.58;;;15.50;99.90;;;;;;4991117;28;20069;-76
2023/07/05 06:46:27;;;;;;;8.55;3.53;;;15.60;99.90;;;;;;4991253;28;20104;-77
2023/07/05 06:49:13;;;;;;;7.30;3.28;;;15.60;99.90;;;;;;4992630;28;20060;-77
2023/07/05 06:51:59;;;;;;;5.50;3.30;;;15.70;99.90;;;;;;4990700;28;20046;-77
2023/07/05 06:54:46;;;;;;;9.05;3.35;;;15.60;99.90;;;;;;4991852;28;20125;-77
2023/07/05 06:57:32;;;;;;;6.63;3.53;;;15.70;99.90;;;;;;4990611;28;20379;-76
2023/07/05 07:00:19;;;;;;;8.25;3.13;;;15.80;99.90;;;;;;4990313;28;20129;-77
2023/07/05 07:03:05;;;;;;;6.60;3.22;;;15.90;99.90;;;;;;4992682;28;20068;-77
2023/07/05 07:05:56;;;;;;;7.78;3.65;;;16.10;99.90;;;;;;4989948;28;20058;-77
2023/07/05 07:08:43;;;;;;;6.57;3.25;;;16.20;99.90;;;;;;4991196;28;20046;-77
2023/07/05 07:11:29;;;;;;;6.60;3.40;;;16.20;99.90;;;;;;4990023;28;20053;-77
2023/07/05 07:14:15;;;;;;;7.28;2.90;;;16.20;99.90;;;;;;4991535;28;20150;-77
2023/07/05 07:17:02;;;;;;;4.60;2.42;;;16.10;99.90;;;;;;4991220;28;20050;-77
2023/07/05 07:19:48;;;;;;;6.53;2.55;;;16.30;99.90;;;;;;4991699;28;20050;-79
2023/07/05 07:22:37;;;;;;;7.03;2.60;;;16.40;99.90;;;;;;4993154;28;20054;-77
2023/07/05 07:25:23;;;;;;;6.30;2.42;;;16.60;99.90;;;;;;4991854;28;20097;-78
2023/07/05 07:28:09;;;;;;;7.15;2.72;;;16.70;99.90;;;;;;4991740;28;20058;-79
2023/07/05 07:30:57;;;;;;;4.45;2.13;;;16.70;99.90;;;;;;4989277;28;20055;-76
2023/07/05 07:33:45;;;;;;;5.50;2.42;;;16.90;99.90;;;;;;4990828;28;20046;-77
2023/07/05 07:36:33;;;;;;;5.47;2.00;;;16.90;99.90;;;;;;4989955;28;20054;-77
2023/07/05 07:39:19;;;;;;;7.40;2.90;;;16.70;99.90;;;;;;4990223;28;20050;-76
2023/07/05 07:42:06;;;;;;;11.57;3.10;;;16.50;99.90;;;;;;4990396;28;20054;-77
2023/07/05 07:44:56;;;;;;;9.60;2.80;;;16.60;99.90;;;;;;4990046;28;20065;-81
2023/07/05 07:47:42;;;;;;;7.00;2.22;;;16.50;99.90;;;;;;4989049;28;20053;-78
2023/07/05 07:50:28;;;;;;;6.82;2.55;;;16.40;99.90;;;;;;4991725;28;20479;-78
2023/07/05 07:53:15;;;;;;;7.10;2.40;;;16.30;99.90;;;;;;4990070;28;20101;-81
2023/07/05 07:56:12;;;;;;;6.70;1.90;;;16.20;99.90;;;;;;4990190;28;20486;-81
2023/07/05 07:59:04;;;;;;;5.30;1.70;;;15.90;99.90;;;;;;4989939;28;20047;-77
2023/07/05 08:01:51;;;;;;;4.18;1.50;;;15.70;99.90;;;;;;4975968;28;20089;-78
2023/07/05 08:04:46;;;;;;;6.78;1.40;;;15.40;99.90;;;;;;4990159;28;20109;-78
2023/07/05 08:07:33;;;;;;;33.05;2.40;;;15.20;99.90;;;;;;4989432;28;20054;-78
2023/07/05 08:10:20;;;;;;;4.30;1.15;;;15.00;99.90;;;;;;4990253;28;20056;-78
2023/07/05 08:13:06;;;;;;;4.18;0.88;;;14.80;99.90;;;;;;4990363;28;20061;-77
2023/07/05 08:15:52;;;;;;;3.42;0.88;;;14.60;99.90;;;;;;4990490;28;20112;-76
2023/07/05 08:18:38;;;;;;;6.95;1.13;;;14.30;99.90;;;;;;4989206;28;20141;-78
2023/07/05 08:21:25;;;;;;;3.25;0.85;;;14.10;99.90;;;;;;4990735;28;20058;-77
2023/07/05 08:24:12;;;;;;;4.28;0.70;;;13.90;99.90;;;;;;4976102;28;20050;-79
2023/07/05 08:26:59;;;;;;;3.30;0.85;;;13.80;99.90;;;;;;4975522;28;20479;-77
2023/07/05 08:29:46;;;;;;;2.35;0.70;;;13.60;99.90;;;;;;4990244;28;20054;-77
2023/07/05 08:32:33;;;;;;;3.33;0.60;;;13.50;99.90;;;;;;4989831;28;20046;-77
2023/07/05 08:35:19;;;;;;;3.00;1.35;;;13.30;99.90;;;;;;4988681;28;20458;-77
2023/07/05 08:38:06;;;;;;;2.33;0.80;;;13.20;99.90;;;;;;4975664;28;20090;-77
2023/07/05 08:40:59;;;;;;;3.03;0.82;;;13.10;99.90;;;;;;4988222;28;20240;-77
2023/07/05 08:44:01;;;;;;;2.83;1.00;;;12.90;99.90;;;;;;4990268;28;20100;-79
2023/07/05 08:47:14;;;;;;;2.13;0.68;;;12.90;99.90;;;;;;4989929;28;20058;-77
2023/07/05 08:50:22;;;;;;;2.42;0.60;;;12.80;99.90;;;;;;4989092;28;20058;-79
2023/07/05 08:53:19;;;;;;;3.22;0.82;;;12.80;99.90;;;;;;4990379;28;20054;-77
2023/07/05 08:56:41;;;;;;;2.13;0.65;;;12.80;99.90;;;;;;4988155;28;20216;-77
2023/07/05 08:59:44;;;;;;;4.97;1.38;;;12.80;99.90;;;;;;4992525;28;20054;-77
2023/07/05 09:02:31;;;;;;;2.35;0.80;;;12.70;99.90;;;;;;4994095;28;20124;-79
2023/07/05 09:05:30;;;;;;;4.30;1.00;;;12.70;99.90;;;;;;4993705;28;20050;-78
2023/07/05 09:08:24;;;;;;;2.83;0.52;;;12.70;99.90;;;;;;4992311;28;20092;-77
2023/07/05 09:11:36;;;;;;;3.17;1.00;;;12.70;99.90;;;;;;4993135;28;20134;-78
2023/07/05 09:14:28;;;;;;;4.07;1.02;;;12.70;99.90;;;;;;4978657;28;20073;-78
2023/07/05 09:17:54;;;;;;;6.32;1.40;;;12.70;99.90;;;;;;4993244;28;20050;-76
2023/07/05 09:21:13;;;;;;;5.50;1.00;;;12.60;99.90;;;;;;4978991;28;20145;-76
2023/07/05 09:24:17;;;;;;;4.93;1.05;;;12.60;99.90;;;;;;4993852;28;20054;-76
2023/07/05 09:27:25;;;;;;;6.75;1.40;;;12.60;99.90;;;;;;4992454;28;20085;-77
2023/07/05 09:30:14;;;;;;;4.05;0.90;;;12.60;99.90;;;;;;4993183;28;20494;-75
2023/07/05 09:33:27;;;;;;;5.53;1.27;;;12.60;99.90;;;;;;4993020;28;20043;-77
2023/07/05 09:36:22;;;;;;;7.28;1.30;;;12.70;99.90;;;;;;4993028;28;20046;-76
2023/07/05 09:39:50;;;;;;;5.95;1.88;;;12.70;99.90;;;;;;4993093;28;20043;-76
2023/07/05 09:42:52;;;;;;;7.05;1.35;;;12.90;99.90;;;;;;4992106;28;20050;-77
2023/07/05 09:45:39;;;;;;;9.40;1.30;;;13.00;99.90;;;;;;4992818;28;20409;-79
2023/07/05 09:48:29;;;;;;;7.65;1.52;;;13.00;99.90;;;;;;4992953;28;20056;-77
2023/07/05 09:51:17;;;;;;;10.68;1.80;;;13.10;99.90;;;;;;4993071;28;20134;-77
2023/07/05 09:54:09;;;;;;;10.32;1.67;;;13.20;99.90;;;;;;4993135;28;20077;-79
2023/07/05 09:57:09;;;;;;;8.43;1.35;;;13.40;99.90;;;;;;4991687;28;20057;-79
2023/07/05 09:59:55;;;;;;;13.43;2.00;;;13.50;99.90;;;;;;4992993;28;20371;-76
2023/07/05 10:02:42;;;;;;;5.97;1.20;;;13.60;99.90;;;;;;4992484;28;20042;-77
2023/07/05 10:05:29;;;;;;;9.35;1.73;;;13.90;99.90;;;;;;4990572;28;20060;-76
2023/07/05 10:08:16;;;;;;;8.52;1.15;;;14.20;99.90;;;;;;4993291;28;20054;-78
2023/07/05 10:11:03;;;;;;;8.15;1.25;;;14.60;99.90;;;;;;4992601;28;20105;-77
2023/07/05 10:14:03;;;;;;;6.43;0.95;;;14.90;99.90;;;;;;4977373;28;20498;-78
2023/07/05 10:16:53;;;;;;;5.53;1.52;;;15.00;99.90;;;;;;4992413;28;20087;-77
2023/07/05 10:19:51;;;;;;;6.50;0.93;;;15.00;99.90;;;;;;4977708;28;20050;-76
2023/07/05 10:22:38;;;;;;;6.75;0.80;;;15.00;99.90;;;;;;4992601;28;20082;-77
2023/07/05 10:25:24;;;;;;;5.55;1.20;;;14.90;99.90;;;;;;4992526;28;20054;-78
2023/07/05 10:28:18;;;;;;;7.03;1.35;;;14.70;99.90;;;;;;4992714;28;20080;-77
2023/07/05 10:31:05;;;;;;;4.32;1.05;;;14.70;99.90;;;;;;4992661;28;20076;-78
2023/07/05 10:34:15;;;;;;;6.43;1.15;;;14.70;99.90;;;;;;4992737;28;20047;-77
2023/07/05 10:37:04;;;;;;;2.63;0.82;;;14.70;99.90;;;;;;4977612;28;20065;-77
2023/07/05 10:39:50;;;;;;;4.38;0.90;;;14.80;99.90;;;;;;4991033;28;20058;-75
2023/07/05 10:42:41;;;;;;;3.15;0.57;;;14.70;99.90;;;;;;4976872;28;20497;-76
2023/07/05 10:45:34;;;;;;;5.15;1.20;;;14.60;99.90;;;;;;4990496;28;20100;-77
2023/07/05 10:48:41;;;;;;;5.97;1.10;;;14.50;99.90;;;;;;4990980;28;20046;-78
2023/07/05 10:51:35;;;;;;;3.35;0.73;;;14.70;99.90;;;;;;4991875;28;20062;-77
2023/07/05 10:54:32;;;;;;;5.95;1.08;;;15.10;99.90;;;;;;4991096;28;20109;-78
2023/07/05 10:57:21;;;;;;;8.90;1.13;;;15.40;99.90;;;;;;4991625;28;20054;-76
2023/07/05 11:00:21;;;;;;;7.63;0.98;;;15.80;99.90;;;;;;4992136;28;20120;-78
2023/07/05 11:03:10;;;;;;;7.30;0.80;;;16.10;99.90;;;;;;4991849;28;20046;-77
2023/07/05 11:05:59;;;;;;;4.43;0.80;;;16.10;99.90;;;;;;4991149;28;20507;-76
2023/07/05 11:08:46;;;;;;;7.15;1.65;;;16.40;99.90;;;;;;4990506;28;20086;-79
2023/07/05 11:11:40;;;;;;;5.45;1.15;;;16.80;99.90;;;;;;4990262;28;20105;-77
2023/07/05 11:14:29;;;;;;;7.07;0.90;;;17.20;99.90;;;;;;4990678;28;20054;-77
2023/07/05 11:17:24;;;;;;;8.50;0.63;;;17.50;99.90;;;;;;4991357;28;20774;-78
2023/07/05 11:20:36;;;;;;;8.52;2.63;;;17.80;99.90;;;;;;4991468;28;20137;-76
2023/07/05 11:23:43;;;;;;;5.38;1.08;;;18.10;99.90;;;;;;4990125;28;20061;-77
2023/07/05 11:26:35;;;;;;;4.78;0.85;;;18.30;99.90;;;;;;4990872;28;20510;-79
2023/07/05 11:29:27;;;;;;;6.57;1.20;;;18.50;99.90;;;;;;4991132;28;20158;-79
2023/07/05 11:32:13;;;;;;;3.47;0.85;;;18.40;99.90;;;;;;4989800;28;20042;-77
2023/07/05 11:35:03;;;;;;;3.55;0.95;;;18.30;99.90;;;;;;4991361;28;20109;-77
2023/07/05 11:37:49;;;;;;;2.50;1.20;;;18.30;99.90;;;;;;4989661;28;20046;-76
2023/07/05 11:41:01;;;;;;;5.97;1.40;;;18.50;99.90;;;;;;4991418;28;20448;-78
2023/07/05 11:43:56;;;;;;;6.82;1.00;;;18.60;99.90;;;;;;4990292;28;20062;-77
2023/07/05 11:46:48;;;;;;;4.90;1.17;;;18.40;99.90;;;;;;4990761;28;20511;-81
2023/07/05 11:49:42;;;;;;;4.63;1.13;;;18.30;99.90;;;;;;4989990;28;20050;-81
2023/07/05 11:52:30;;;;;;;2.65;0.90;;;18.10;99.90;;;;;;4989270;28;20051;-81
2023/07/05 11:55:19;;;;;;;3.03;1.10;;;18.10;99.90;;;;;;4989353;28;20459;-79
2023/07/05 11:58:24;;;;;;;7.90;1.40;;;18.00;99.90;;;;;;4990841;28;20064;-77
2023/07/05 12:01:18;;;;;;;9.05;1.17;;;17.90;99.90;;;;;;4990338;28;20042;-80
2023/07/05 12:04:10;;;;;;;5.40;1.40;;;17.70;99.90;;;;;;4989784;28;20058;-75
2023/07/05 12:06:56;;;;;;;11.23;1.00;;;17.60;99.90;;;;;;4990527;28;20050;-76
2023/07/05 12:09:44;;;;;;;6.43;1.48;;;17.50;99.90;;;;;;4991165;28;20677;-77
2023/07/05 12:12:38;;;;;;;8.90;2.33;;;17.40;99.90;;;;;;4975952;28;20053;-76
2023/07/05 12:15:25;;;;;;;7.53;1.30;;;17.30;99.90;;;;;;4990867;28;20054;-76
2023/07/05 12:18:14;;;;;;;11.50;1.85;;;17.40;99.90;;;;;;4988949;28;20058;-80
2023/07/05 12:21:04;;;;;;;22.38;3.00;;;17.40;99.90;;;;;;4976029;28;20050;-77
2023/07/05 12:23:56;;;;;;;13.45;3.08;;;17.30;99.90;;;;;;4989498;28;20046;-76
2023/07/05 12:26:43;;;;;;;19.92;4.13;;;17.30;99.90;;;;;;4989781;28;20122;-80
2023/07/05 12:29:29;;;;;;;19.20;3.53;;;17.20;99.90;;;;;;4988545;28;20152;-77
2023/07/05 12:32:19;;;;;;;21.88;3.53;;;17.10;99.90;;;;;;4990580;28;20108;-79
2023/07/05 12:35:12;;;;;;;18.63;3.85;;;17.10;99.90;;;;;;4989098;28;20051;-77
2023/07/05 12:37:58;;;;;;;22.92;4.22;;;17.10;99.90;;;;;;4988828;28;20086;-77
2023/07/05 12:40:54;;;;;;;32.38;5.10;;;16.90;99.90;;;;;;4989784;28;20046;-76
2023/07/05 12:43:41;;;;;;;28.42;5.35;;;16.50;99.90;;;;;;4988902;28;20051;-77
2023/07/05 12:46:29;;;;;;;29.67;5.05;;;16.20;99.90;;;;;;4989851;28;20054;-79
2023/07/05 12:49:23;;;;;;;31.70;6.25;;;15.90;99.90;;;;;;4990408;28;20050;-76
2023/07/05 12:52:22;;;;;;;31.45;5.60;;;15.70;99.90;;;;;;4989470;28;20054;-78
2023/07/05 12:55:28;;;;;;;29.73;7.97;;;15.60;99.90;;;;;;4990057;28;20042;-77
2023/07/05 12:58:14;;;;;;;23.63;4.75;;;15.40;99.90;;;;;;4989771;28;20072;-78
2023/07/05 13:01:01;;;;;;;35.83;6.30;;;15.30;99.90;;;;;;4990483;28;20398;-76
2023/07/05 13:03:49;;;;;;;29.35;5.68;;;15.20;99.90;;;;;;4989901;28;20051;-76
2023/07/05 13:06:36;;;;;;;38.67;6.20;;;15.30;99.90;;;;;;4989488;28;20150;-77
2023/07/05 13:09:30;;;;;;;35.40;7.43;;;15.50;99.90;;;;;;4989637;28;20100;-77
2023/07/05 13:12:17;;;;;;;33.70;7.30;;;15.70;99.90;;;;;;4989928;28;20050;-79
2023/07/05 13:15:07;;;;;;;48.53;8.02;;;15.90;99.90;;;;;;4989027;28;20057;-77
2023/07/05 13:18:12;;;;;;;33.30;6.25;;;16.10;99.90;;;;;;4988992;28;20196;-77
2023/07/05 13:21:15;;;;;;;29.48;5.13;;;16.20;99.90;;;;;;4989877;28;20061;-75
2023/07/05 13:24:02;;;;;;;33.03;4.97;;;16.20;99.90;;;;;;4989486;28;20061;-77
2023/07/05 13:26:48;;;;;;;17.70;3.75;;;16.30;99.90;;;;;;4989422;28;20054;-76
2023/07/05 13:29:40;;;;;;;16.48;2.72;;;16.30;99.90;;;;;;4989473;28;20050;-78
2023/07/05 13:32:37;;;;;;;10.05;1.75;;;16.30;99.90;;;;;;4989349;28;20054;-75
2023/07/05 13:35:28;;;;;;;28.85;4.65;;;16.30;99.90;;;;;;4990244;28;20050;-79
2023/07/05 13:38:14;;;;;;;18.63;3.90;;;16.40;99.90;;;;;;4989347;28;20108;-77
2023/07/05 13:41:03;;;;;;;30.60;4.80;;;16.20;99.90;;;;;;4989101;28;20050;-76
2023/07/05 13:43:49;;;;;;;27.92;5.40;;;15.90;99.90;;;;;;4989569;28;20086;-78
2023/07/05 13:46:36;;;;;;;34.70;6.75;;;15.40;99.90;;;;;;4993766;28;20062;-78
2023/07/05 13:49:24;;;;;;;35.25;5.43;;;15.10;99.90;;;;;;4993265;28;20104;-76
2023/07/05 13:52:18;;;;;;;27.90;5.78;;;14.80;99.90;;;;;;4993485;28;20073;-75
2023/07/05 13:55:04;;;;;;;35.55;7.28;;;14.70;99.90;;;;;;4991800;28;20447;-78
2023/07/05 13:57:55;;;;;;;31.27;5.43;;;14.60;99.90;;;;;;4993308;28;20046;-78
2023/07/05 14:00:45;;;;;;;37.30;6.40;;;14.50;99.90;;;;;;4991661;28;20046;-78
2023/07/05 14:03:32;;;;;;;29.77;5.35;;;14.50;99.90;;;;;;4992431;28;20479;-77
2023/07/05 14:06:23;;;;;;;37.20;6.65;;;14.50;99.90;;;;;;4993255;28;20057;-77
2023/07/05 14:09:10;;;;;;;36.65;5.07;;;14.50;99.90;;;;;;4992819;28;20054;-77
2023/07/05 14:11:57;;;;;;;22.13;5.82;;;14.40;99.90;;;;;;4992115;28;20129;-76
2023/07/05 14:14:43;;;;;;;31.20;4.43;;;14.40;99.90;;;;;;4978903;28;20383;-77
2023/07/05 14:17:31;;;;;;;39.05;4.30;;;14.40;99.90;;;;;;4992423;28;20054;-76
2023/07/05 14:20:18;;;;;;;23.23;4.43;;;14.40;99.90;;;;;;4992765;28;20049;-78
2023/07/05 14:23:09;;;;;;;33.97;7.03;;;14.30;99.90;;;;;;4992090;28;20412;-78
2023/07/05 14:25:56;;;;;;;32.45;5.13;;;14.20;99.90;;;;;;4991848;28;20057;-80
2023/07/05 14:28:42;;;;;;;27.67;5.53;;;14.10;99.90;;;;;;4992409;28;20050;-79
2023/07/05 14:31:28;;;;;;;35.45;5.50;;;14.10;99.90;;;;;;4991256;28;20487;-78
2023/07/05 14:34:15;;;;;;;28.63;5.18;;;14.10;99.90;;;;;;4992335;28;20081;-78
2023/07/05 14:37:01;;;;;;;26.27;3.60;;;14.20;99.90;;;;;;4991806;28;20051;-78
2023/07/05 14:39:47;;;;;;;17.52;4.90;;;14.20;99.90;;;;;;4990696;28;20050;-78
2023/07/05 14:42:34;;;;;;;18.13;4.15;;;14.20;99.90;;;;;;4992343;28;20049;-75